sensor_id;sensor_type;location;lat;lon;timestamp;P1;durP1;ratioP1;P2;durP2;ratioP2
14665;SDS011;7420;53.574;10.040;2022-09-12T00:02:22;9.00;;;6.80;;
14665;SDS011;7420;53.574;10.040;2022-09-12T00:04:48;8.48;;;6.95;;
14665;SDS011;7420;53.574;10.040;2022-09-12T00:07:13;8.68;;;6.68;;
14665;SDS011;7420;53.574;10.040;2022-09-12T00:09:38;9.13;;;6.40;;
14665;SDS011;7420;53.574;10.040;2022-09-12T00:12:04;9.35;;;6.45;;
14665;SDS011;7420;53.574;10.040;2022-09-12T00:14:29;7.53;;;6.10;;
14665;SDS011;7420;53.574;10.040;2022-09-12T00:16:58;7.68;;;6.30;;
14665;SDS011;7420;53.574;10.040;2022-09-12T00:19:25;7.78;;;6.63;;
14665;SDS011;7420;53.574;10.040;2022-09-12T00:21:51;7.22;;;6.20;;
14665;SDS011;7420;53.574;10.040;2022-09-12T00:24:17;8.52;;;7.15;;
14665;SDS011;7420;53.574;10.040;2022-09-12T00:26:42;8.30;;;6.55;;
14665;SDS011;7420;53.574;10.040;2022-09-12T00:29:09;10.73;;;7.00;;
14665;SDS011;7420;53.574;10.040;2022-09-12T00:31:39;8.20;;;6.10;;
14665;SDS011;7420;53.574;10.040;2022-09-12T00:34:05;9.02;;;6.68;;
14665;SDS011;7420;53.574;10.040;2022-09-12T00:36:30;9.38;;;6.70;;
14665;SDS011;7420;53.574;10.040;2022-09-12T00:38:56;10.60;;;7.82;;
14665;SDS011;7420;53.574;10.040;2022-09-12T00:43:54;10.32;;;7.95;;
14665;SDS011;7420;53.574;10.040;2022-09-12T00:51:54;9.10;;;6.97;;
14665;SDS011;7420;53.574;10.040;2022-09-12T00:54:33;11.65;;;6.90;;
14665;SDS011;7420;53.574;10.040;2022-09-12T00:57:03;9.93;;;8.23;;
14665;SDS011;7420;53.574;10.040;2022-09-12T00:59:34;11.63;;;6.97;;
14665;SDS011;7420;53.574;10.040;2022-09-12T01:02:04;10.27;;;6.95;;
14665;SDS011;7420;53.574;10.040;2022-09-12T01:04:31;7.75;;;6.82;;
14665;SDS011;7420;53.574;10.040;2022-09-12T01:06:56;10.63;;;7.07;;
14665;SDS011;7420;53.574;10.040;2022-09-12T01:09:22;9.48;;;7.13;;
14665;SDS011;7420;53.574;10.040;2022-09-12T01:11:49;8.35;;;7.10;;
14665;SDS011;7420;53.574;10.040;2022-09-12T01:14:18;8.63;;;6.95;;
14665;SDS011;7420;53.574;10.040;2022-09-12T01:16:44;10.98;;;7.28;;
14665;SDS011;7420;53.574;10.040;2022-09-12T01:19:24;8.98;;;6.88;;
14665;SDS011;7420;53.574;10.040;2022-09-12T01:38:26;9.63;;;7.53;;
14665;SDS011;7420;53.574;10.040;2022-09-12T01:44:11;11.25;;;7.20;;
14665;SDS011;7420;53.574;10.040;2022-09-12T01:46:34;7.93;;;6.32;;
14665;SDS011;7420;53.574;10.040;2022-09-12T01:51:56;9.27;;;6.82;;
14665;SDS011;7420;53.574;10.040;2022-09-12T01:54:37;8.35;;;6.80;;
14665;SDS011;7420;53.574;10.040;2022-09-12T01:57:12;9.35;;;7.35;;
14665;SDS011;7420;53.574;10.040;2022-09-12T01:59:54;11.35;;;8.32;;
14665;SDS011;7420;53.574;10.040;2022-09-12T02:05:16;10.65;;;6.97;;
14665;SDS011;7420;53.574;10.040;2022-09-12T02:07:47;9.50;;;7.53;;
14665;SDS011;7420;53.574;10.040;2022-09-12T02:10:17;15.50;;;10.77;;
14665;SDS011;7420;53.574;10.040;2022-09-12T02:12:52;10.55;;;8.13;;
14665;SDS011;7420;53.574;10.040;2022-09-12T02:15:22;11.05;;;8.20;;
14665;SDS011;7420;53.574;10.040;2022-09-12T02:17:51;12.73;;;9.02;;
14665;SDS011;7420;53.574;10.040;2022-09-12T02:20:21;12.85;;;9.38;;
14665;SDS011;7420;53.574;10.040;2022-09-12T02:22:51;9.70;;;8.55;;
14665;SDS011;7420;53.574;10.040;2022-09-12T02:25:19;10.60;;;8.68;;
14665;SDS011;7420;53.574;10.040;2022-09-12T02:27:53;11.18;;;7.97;;
14665;SDS011;7420;53.574;10.040;2022-09-12T02:30:25;13.68;;;9.07;;
14665;SDS011;7420;53.574;10.040;2022-09-12T02:33:05;9.38;;;7.85;;
14665;SDS011;7420;53.574;10.040;2022-09-12T02:35:46;11.80;;;9.55;;
14665;SDS011;7420;53.574;10.040;2022-09-12T02:38:23;12.52;;;8.70;;
14665;SDS011;7420;53.574;10.040;2022-09-12T02:40:52;10.63;;;7.72;;
14665;SDS011;7420;53.574;10.040;2022-09-12T02:43:18;9.63;;;7.95;;
14665;SDS011;7420;53.574;10.040;2022-09-12T02:45:43;9.30;;;7.45;;
14665;SDS011;7420;53.574;10.040;2022-09-12T02:48:10;9.48;;;7.40;;
14665;SDS011;7420;53.574;10.040;2022-09-12T02:50:40;12.23;;;7.53;;
14665;SDS011;7420;53.574;10.040;2022-09-12T02:53:06;9.23;;;7.45;;
14665;SDS011;7420;53.574;10.040;2022-09-12T02:55:34;9.30;;;7.97;;
14665;SDS011;7420;53.574;10.040;2022-09-12T02:58:00;11.05;;;7.80;;
14665;SDS011;7420;53.574;10.040;2022-09-12T03:00:29;9.48;;;7.22;;
14665;SDS011;7420;53.574;10.040;2022-09-12T03:03:19;8.95;;;7.50;;
14665;SDS011;7420;53.574;10.040;2022-09-12T03:08:29;10.37;;;7.80;;
14665;SDS011;7420;53.574;10.040;2022-09-12T03:11:22;10.98;;;7.82;;
14665;SDS011;7420;53.574;10.040;2022-09-12T03:16:33;12.57;;;8.70;;
14665;SDS011;7420;53.574;10.040;2022-09-12T03:24:31;15.32;;;9.85;;
14665;SDS011;7420;53.574;10.040;2022-09-12T03:29:36;10.25;;;9.07;;
14665;SDS011;7420;53.574;10.040;2022-09-12T03:32:03;9.50;;;8.27;;
14665;SDS011;7420;53.574;10.040;2022-09-12T03:34:29;9.15;;;7.78;;
14665;SDS011;7420;53.574;10.040;2022-09-12T03:36:54;10.27;;;7.88;;
14665;SDS011;7420;53.574;10.040;2022-09-12T03:39:20;9.63;;;7.07;;
14665;SDS011;7420;53.574;10.040;2022-09-12T03:41:48;8.32;;;7.53;;
14665;SDS011;7420;53.574;10.040;2022-09-12T03:44:14;9.05;;;6.90;;
14665;SDS011;7420;53.574;10.040;2022-09-12T03:46:40;8.48;;;6.90;;
14665;SDS011;7420;53.574;10.040;2022-09-12T03:49:05;8.20;;;7.38;;
14665;SDS011;7420;53.574;10.040;2022-09-12T03:51:31;9.55;;;7.43;;
14665;SDS011;7420;53.574;10.040;2022-09-12T03:53:56;8.50;;;7.60;;
14665;SDS011;7420;53.574;10.040;2022-09-12T03:56:21;8.48;;;7.60;;
14665;SDS011;7420;53.574;10.040;2022-09-12T03:58:47;9.23;;;7.85;;
14665;SDS011;7420;53.574;10.040;2022-09-12T04:01:13;7.57;;;6.80;;
14665;SDS011;7420;53.574;10.040;2022-09-12T04:03:40;9.70;;;8.70;;
14665;SDS011;7420;53.574;10.040;2022-09-12T04:06:08;10.73;;;7.68;;
14665;SDS011;7420;53.574;10.040;2022-09-12T04:08:35;9.02;;;7.53;;
14665;SDS011;7420;53.574;10.040;2022-09-12T04:11:07;10.55;;;7.95;;
14665;SDS011;7420;53.574;10.040;2022-09-12T04:13:38;10.30;;;8.25;;
14665;SDS011;7420;53.574;10.040;2022-09-12T04:16:04;11.10;;;8.48;;
14665;SDS011;7420;53.574;10.040;2022-09-12T04:18:30;11.85;;;8.25;;
14665;SDS011;7420;53.574;10.040;2022-09-12T04:20:56;13.48;;;8.52;;
14665;SDS011;7420;53.574;10.040;2022-09-12T04:23:22;9.27;;;7.95;;
14665;SDS011;7420;53.574;10.040;2022-09-12T04:25:54;11.88;;;8.88;;
14665;SDS011;7420;53.574;10.040;2022-09-12T04:28:20;11.80;;;9.63;;
14665;SDS011;7420;53.574;10.040;2022-09-12T04:30:45;13.05;;;10.15;;
14665;SDS011;7420;53.574;10.040;2022-09-12T04:33:11;15.88;;;10.77;;
14665;SDS011;7420;53.574;10.040;2022-09-12T04:35:36;17.95;;;11.43;;
14665;SDS011;7420;53.574;10.040;2022-09-12T04:38:02;18.58;;;13.65;;
14665;SDS011;7420;53.574;10.040;2022-09-12T04:40:28;16.02;;;12.05;;
14665;SDS011;7420;53.574;10.040;2022-09-12T04:42:54;15.10;;;10.48;;
14665;SDS011;7420;53.574;10.040;2022-09-12T04:45:20;18.30;;;12.13;;
14665;SDS011;7420;53.574;10.040;2022-09-12T04:47:45;16.05;;;12.10;;
14665;SDS011;7420;53.574;10.040;2022-09-12T04:50:11;12.90;;;10.43;;
14665;SDS011;7420;53.574;10.040;2022-09-12T04:52:36;15.25;;;10.32;;
14665;SDS011;7420;53.574;10.040;2022-09-12T04:55:01;14.02;;;9.98;;
14665;SDS011;7420;53.574;10.040;2022-09-12T04:57:27;13.32;;;10.20;;
14665;SDS011;7420;53.574;10.040;2022-09-12T04:59:52;14.77;;;10.82;;
14665;SDS011;7420;53.574;10.040;2022-09-12T05:02:18;15.27;;;10.38;;
14665;SDS011;7420;53.574;10.040;2022-09-12T05:04:43;13.18;;;11.23;;
14665;SDS011;7420;53.574;10.040;2022-09-12T05:07:08;14.75;;;10.88;;
14665;SDS011;7420;53.574;10.040;2022-09-12T05:09:34;13.90;;;10.63;;
14665;SDS011;7420;53.574;10.040;2022-09-12T05:11:59;16.23;;;10.80;;
14665;SDS011;7420;53.574;10.040;2022-09-12T05:14:25;17.27;;;10.88;;
14665;SDS011;7420;53.574;10.040;2022-09-12T05:16:50;16.17;;;11.02;;
14665;SDS011;7420;53.574;10.040;2022-09-12T05:19:15;16.70;;;10.30;;
14665;SDS011;7420;53.574;10.040;2022-09-12T05:21:41;15.40;;;11.02;;
14665;SDS011;7420;53.574;10.040;2022-09-12T05:24:06;12.18;;;9.75;;
14665;SDS011;7420;53.574;10.040;2022-09-12T05:26:34;19.50;;;10.88;;
14665;SDS011;7420;53.574;10.040;2022-09-12T05:28:59;16.27;;;10.98;;
14665;SDS011;7420;53.574;10.040;2022-09-12T05:31:25;15.15;;;11.18;;
14665;SDS011;7420;53.574;10.040;2022-09-12T05:33:52;14.77;;;11.27;;
14665;SDS011;7420;53.574;10.040;2022-09-12T05:36:19;15.15;;;11.38;;
14665;SDS011;7420;53.574;10.040;2022-09-12T05:38:54;14.95;;;10.45;;
14665;SDS011;7420;53.574;10.040;2022-09-12T05:41:26;15.10;;;11.48;;
14665;SDS011;7420;53.574;10.040;2022-09-12T05:43:57;18.63;;;13.00;;
14665;SDS011;7420;53.574;10.040;2022-09-12T05:46:25;17.35;;;11.23;;
14665;SDS011;7420;53.574;10.040;2022-09-12T05:48:52;17.92;;;12.38;;
14665;SDS011;7420;53.574;10.040;2022-09-12T05:51:28;20.80;;;12.20;;
14665;SDS011;7420;53.574;10.040;2022-09-12T05:53:58;18.02;;;12.32;;
14665;SDS011;7420;53.574;10.040;2022-09-12T05:56:26;22.42;;;13.15;;
14665;SDS011;7420;53.574;10.040;2022-09-12T06:01:20;27.38;;;16.60;;
14665;SDS011;7420;53.574;10.040;2022-09-12T06:03:52;24.50;;;14.65;;
14665;SDS011;7420;53.574;10.040;2022-09-12T06:06:20;25.08;;;16.05;;
14665;SDS011;7420;53.574;10.040;2022-09-12T06:08:48;33.92;;;17.42;;
14665;SDS011;7420;53.574;10.040;2022-09-12T06:11:16;26.83;;;16.50;;
14665;SDS011;7420;53.574;10.040;2022-09-12T06:13:43;22.63;;;15.43;;
14665;SDS011;7420;53.574;10.040;2022-09-12T06:16:10;25.38;;;15.60;;
14665;SDS011;7420;53.574;10.040;2022-09-12T06:18:37;28.52;;;16.58;;
14665;SDS011;7420;53.574;10.040;2022-09-12T06:21:04;28.85;;;17.17;;
14665;SDS011;7420;53.574;10.040;2022-09-12T06:23:31;26.13;;;15.90;;
14665;SDS011;7420;53.574;10.040;2022-09-12T06:25:57;26.45;;;16.73;;
14665;SDS011;7420;53.574;10.040;2022-09-12T06:28:22;24.60;;;15.77;;
14665;SDS011;7420;53.574;10.040;2022-09-12T06:30:49;24.83;;;16.15;;
14665;SDS011;7420;53.574;10.040;2022-09-12T06:33:14;22.27;;;14.60;;
14665;SDS011;7420;53.574;10.040;2022-09-12T06:35:40;25.17;;;16.20;;
14665;SDS011;7420;53.574;10.040;2022-09-12T06:38:05;25.40;;;15.30;;
14665;SDS011;7420;53.574;10.040;2022-09-12T06:40:31;22.10;;;15.18;;
14665;SDS011;7420;53.574;10.040;2022-09-12T06:42:57;23.67;;;15.48;;
14665;SDS011;7420;53.574;10.040;2022-09-12T06:45:22;21.23;;;13.98;;
14665;SDS011;7420;53.574;10.040;2022-09-12T06:47:48;20.73;;;13.10;;
14665;SDS011;7420;53.574;10.040;2022-09-12T06:50:13;22.30;;;12.98;;
14665;SDS011;7420;53.574;10.040;2022-09-12T06:52:38;16.85;;;12.52;;
14665;SDS011;7420;53.574;10.040;2022-09-12T06:55:04;20.70;;;13.15;;
14665;SDS011;7420;53.574;10.040;2022-09-12T06:57:30;18.38;;;13.30;;
14665;SDS011;7420;53.574;10.040;2022-09-12T06:59:56;16.85;;;12.07;;
14665;SDS011;7420;53.574;10.040;2022-09-12T07:02:22;18.02;;;12.43;;
14665;SDS011;7420;53.574;10.040;2022-09-12T07:04:49;21.38;;;13.30;;
14665;SDS011;7420;53.574;10.040;2022-09-12T07:07:15;19.90;;;14.07;;
14665;SDS011;7420;53.574;10.040;2022-09-12T07:09:41;18.20;;;12.55;;
14665;SDS011;7420;53.574;10.040;2022-09-12T07:12:07;26.63;;;11.38;;
14665;SDS011;7420;53.574;10.040;2022-09-12T07:14:32;13.95;;;11.40;;
14665;SDS011;7420;53.574;10.040;2022-09-12T07:16:57;13.50;;;11.88;;
14665;SDS011;7420;53.574;10.040;2022-09-12T07:19:23;15.15;;;10.88;;
14665;SDS011;7420;53.574;10.040;2022-09-12T07:21:48;15.55;;;10.75;;
14665;SDS011;7420;53.574;10.040;2022-09-12T07:24:14;14.30;;;9.98;;
14665;SDS011;7420;53.574;10.040;2022-09-12T07:26:40;14.18;;;10.77;;
14665;SDS011;7420;53.574;10.040;2022-09-12T07:29:06;13.32;;;10.48;;
14665;SDS011;7420;53.574;10.040;2022-09-12T07:31:35;13.70;;;10.43;;
14665;SDS011;7420;53.574;10.040;2022-09-12T07:34:03;12.85;;;10.13;;
14665;SDS011;7420;53.574;10.040;2022-09-12T07:36:30;11.88;;;10.63;;
14665;SDS011;7420;53.574;10.040;2022-09-12T07:38:56;15.18;;;10.32;;
14665;SDS011;7420;53.574;10.040;2022-09-12T07:41:23;12.43;;;9.75;;
14665;SDS011;7420;53.574;10.040;2022-09-12T07:43:50;11.68;;;9.75;;
14665;SDS011;7420;53.574;10.040;2022-09-12T07:46:17;10.65;;;9.13;;
14665;SDS011;7420;53.574;10.040;2022-09-12T07:48:42;9.38;;;8.48;;
14665;SDS011;7420;53.574;10.040;2022-09-12T07:51:10;11.30;;;9.30;;
14665;SDS011;7420;53.574;10.040;2022-09-12T07:53:36;14.93;;;9.55;;
14665;SDS011;7420;53.574;10.040;2022-09-12T07:56:04;16.10;;;9.32;;
14665;SDS011;7420;53.574;10.040;2022-09-12T07:58:31;12.07;;;8.50;;
14665;SDS011;7420;53.574;10.040;2022-09-12T08:01:08;10.60;;;8.55;;
14665;SDS011;7420;53.574;10.040;2022-09-12T08:03:37;13.48;;;8.65;;
14665;SDS011;7420;53.574;10.040;2022-09-12T08:08:32;9.07;;;7.63;;
14665;SDS011;7420;53.574;10.040;2022-09-12T08:10:58;9.60;;;8.63;;
14665;SDS011;7420;53.574;10.040;2022-09-12T08:13:25;11.05;;;8.93;;
14665;SDS011;7420;53.574;10.040;2022-09-12T08:16:00;11.77;;;8.20;;
14665;SDS011;7420;53.574;10.040;2022-09-12T08:18:29;10.98;;;8.20;;
14665;SDS011;7420;53.574;10.040;2022-09-12T08:20:59;9.35;;;8.25;;
14665;SDS011;7420;53.574;10.040;2022-09-12T08:23:26;11.18;;;8.57;;
14665;SDS011;7420;53.574;10.040;2022-09-12T08:25:59;9.10;;;7.93;;
14665;SDS011;7420;53.574;10.040;2022-09-12T08:28:27;11.88;;;7.72;;
14665;SDS011;7420;53.574;10.040;2022-09-12T08:30:58;10.50;;;8.40;;
14665;SDS011;7420;53.574;10.040;2022-09-12T08:33:24;12.27;;;7.50;;
14665;SDS011;7420;53.574;10.040;2022-09-12T08:36:00;14.02;;;8.68;;
14665;SDS011;7420;53.574;10.040;2022-09-12T08:38:28;11.75;;;8.38;;
14665;SDS011;7420;53.574;10.040;2022-09-12T08:40:54;10.48;;;7.25;;
14665;SDS011;7420;53.574;10.040;2022-09-12T08:43:38;7.90;;;6.90;;
14665;SDS011;7420;53.574;10.040;2022-09-12T08:46:07;9.25;;;7.53;;
14665;SDS011;7420;53.574;10.040;2022-09-12T08:48:36;11.10;;;6.78;;
14665;SDS011;7420;53.574;10.040;2022-09-12T08:51:02;8.77;;;5.55;;
14665;SDS011;7420;53.574;10.040;2022-09-12T08:53:29;6.60;;;5.82;;
14665;SDS011;7420;53.574;10.040;2022-09-12T08:55:57;6.07;;;5.00;;
14665;SDS011;7420;53.574;10.040;2022-09-12T08:58:24;9.75;;;6.22;;
14665;SDS011;7420;53.574;10.040;2022-09-12T09:03:57;6.97;;;5.30;;
14665;SDS011;7420;53.574;10.040;2022-09-12T09:06:38;5.05;;;4.55;;
14665;SDS011;7420;53.574;10.040;2022-09-12T09:09:14;6.88;;;4.60;;
14665;SDS011;7420;53.574;10.040;2022-09-12T09:17:28;5.13;;;4.07;;
14665;SDS011;7420;53.574;10.040;2022-09-12T09:19:58;4.45;;;3.88;;
14665;SDS011;7420;53.574;10.040;2022-09-12T09:22:40;4.50;;;3.85;;
14665;SDS011;7420;53.574;10.040;2022-09-12T09:25:12;4.32;;;3.92;;
14665;SDS011;7420;53.574;10.040;2022-09-12T09:27:45;4.85;;;3.85;;
14665;SDS011;7420;53.574;10.040;2022-09-12T09:30:17;5.38;;;4.13;;
14665;SDS011;7420;53.574;10.040;2022-09-12T09:32:47;3.75;;;3.20;;
14665;SDS011;7420;53.574;10.040;2022-09-12T09:35:21;4.00;;;3.33;;
14665;SDS011;7420;53.574;10.040;2022-09-12T09:40:56;3.45;;;3.15;;
14665;SDS011;7420;53.574;10.040;2022-09-12T09:43:42;4.57;;;3.45;;
14665;SDS011;7420;53.574;10.040;2022-09-12T09:46:08;6.15;;;4.30;;
14665;SDS011;7420;53.574;10.040;2022-09-12T09:48:39;3.80;;;3.40;;
14665;SDS011;7420;53.574;10.040;2022-09-12T09:59:24;4.13;;;3.72;;
14665;SDS011;7420;53.574;10.040;2022-09-12T10:01:52;6.55;;;4.57;;
14665;SDS011;7420;53.574;10.040;2022-09-12T10:04:22;4.10;;;3.30;;
14665;SDS011;7420;53.574;10.040;2022-09-12T10:06:50;4.25;;;3.40;;
14665;SDS011;7420;53.574;10.040;2022-09-12T10:09:20;3.50;;;3.03;;
14665;SDS011;7420;53.574;10.040;2022-09-12T10:11:48;4.97;;;3.30;;
14665;SDS011;7420;53.574;10.040;2022-09-12T10:16:52;3.53;;;3.03;;
14665;SDS011;7420;53.574;10.040;2022-09-12T10:19:22;3.70;;;2.97;;
14665;SDS011;7420;53.574;10.040;2022-09-12T10:24:38;2.88;;;2.28;;
14665;SDS011;7420;53.574;10.040;2022-09-12T10:30:01;2.67;;;2.10;;
14665;SDS011;7420;53.574;10.040;2022-09-12T10:32:52;2.95;;;2.50;;
14665;SDS011;7420;53.574;10.040;2022-09-12T10:35:22;4.53;;;2.53;;
14665;SDS011;7420;53.574;10.040;2022-09-12T10:37:53;5.93;;;2.83;;
14665;SDS011;7420;53.574;10.040;2022-09-12T10:40:22;3.38;;;2.90;;
14665;SDS011;7420;53.574;10.040;2022-09-12T10:42:54;4.25;;;3.58;;
14665;SDS011;7420;53.574;10.040;2022-09-12T10:47:55;5.03;;;2.87;;
14665;SDS011;7420;53.574;10.040;2022-09-12T10:50:26;3.38;;;2.80;;
14665;SDS011;7420;53.574;10.040;2022-09-12T10:52:52;3.25;;;2.47;;
14665;SDS011;7420;53.574;10.040;2022-09-12T10:55:21;4.28;;;3.88;;
14665;SDS011;7420;53.574;10.040;2022-09-12T10:58:02;3.55;;;3.20;;
14665;SDS011;7420;53.574;10.040;2022-09-12T11:00:36;3.88;;;2.70;;
14665;SDS011;7420;53.574;10.040;2022-09-12T11:03:14;3.73;;;2.67;;
14665;SDS011;7420;53.574;10.040;2022-09-12T11:11:22;3.60;;;2.53;;
14665;SDS011;7420;53.574;10.040;2022-09-12T11:17:00;4.20;;;2.75;;
14665;SDS011;7420;53.574;10.040;2022-09-12T11:27:50;4.30;;;2.67;;
14665;SDS011;7420;53.574;10.040;2022-09-12T11:30:25;4.13;;;2.88;;
14665;SDS011;7420;53.574;10.040;2022-09-12T11:33:13;3.20;;;2.60;;
14665;SDS011;7420;53.574;10.040;2022-09-12T11:35:50;3.00;;;2.50;;
14665;SDS011;7420;53.574;10.040;2022-09-12T11:41:08;3.90;;;2.30;;
14665;SDS011;7420;53.574;10.040;2022-09-12T11:43:42;2.67;;;2.03;;
14665;SDS011;7420;53.574;10.040;2022-09-12T11:57:48;2.45;;;2.22;;
14665;SDS011;7420;53.574;10.040;2022-09-12T12:02:41;2.73;;;1.90;;
14665;SDS011;7420;53.574;10.040;2022-09-12T12:07:53;2.70;;;2.30;;
14665;SDS011;7420;53.574;10.040;2022-09-12T12:15:46;5.63;;;2.92;;
14665;SDS011;7420;53.574;10.040;2022-09-12T12:18:19;3.15;;;2.60;;
14665;SDS011;7420;53.574;10.040;2022-09-12T12:20:48;1.93;;;1.83;;
14665;SDS011;7420;53.574;10.040;2022-09-12T12:23:48;2.33;;;1.90;;
14665;SDS011;7420;53.574;10.040;2022-09-12T12:29:03;2.97;;;2.10;;
14665;SDS011;7420;53.574;10.040;2022-09-12T12:31:29;3.22;;;2.28;;
14665;SDS011;7420;53.574;10.040;2022-09-12T12:33:59;5.38;;;2.42;;
14665;SDS011;7420;53.574;10.040;2022-09-12T12:36:31;3.03;;;2.30;;
14665;SDS011;7420;53.574;10.040;2022-09-12T12:39:10;2.83;;;2.20;;
14665;SDS011;7420;53.574;10.040;2022-09-12T12:41:59;2.42;;;2.22;;
14665;SDS011;7420;53.574;10.040;2022-09-12T12:49:50;3.58;;;1.88;;
14665;SDS011;7420;53.574;10.040;2022-09-12T12:52:17;3.10;;;2.42;;
14665;SDS011;7420;53.574;10.040;2022-09-12T12:59:43;4.65;;;2.10;;
14665;SDS011;7420;53.574;10.040;2022-09-12T13:02:32;2.42;;;2.22;;
14665;SDS011;7420;53.574;10.040;2022-09-12T13:05:19;2.40;;;2.20;;
14665;SDS011;7420;53.574;10.040;2022-09-12T13:07:52;3.75;;;2.40;;
14665;SDS011;7420;53.574;10.040;2022-09-12T13:10:21;6.18;;;2.50;;
14665;SDS011;7420;53.574;10.040;2022-09-12T13:12:48;2.50;;;2.30;;
14665;SDS011;7420;53.574;10.040;2022-09-12T13:18:02;2.92;;;2.30;;
14665;SDS011;7420;53.574;10.040;2022-09-12T13:20:32;2.75;;;2.15;;
14665;SDS011;7420;53.574;10.040;2022-09-12T13:23:02;3.47;;;2.10;;
14665;SDS011;7420;53.574;10.040;2022-09-12T13:25:29;3.17;;;2.40;;
14665;SDS011;7420;53.574;10.040;2022-09-12T13:32:57;2.60;;;1.98;;
14665;SDS011;7420;53.574;10.040;2022-09-12T13:38:49;1.98;;;1.77;;
14665;SDS011;7420;53.574;10.040;2022-09-12T13:41:21;4.93;;;2.05;;
14665;SDS011;7420;53.574;10.040;2022-09-12T13:44:09;2.97;;;2.00;;
14665;SDS011;7420;53.574;10.040;2022-09-12T13:46:37;2.30;;;2.00;;
14665;SDS011;7420;53.574;10.040;2022-09-12T13:49:10;2.25;;;2.05;;
14665;SDS011;7420;53.574;10.040;2022-09-12T13:51:58;2.25;;;1.92;;
14665;SDS011;7420;53.574;10.040;2022-09-12T13:54:52;3.83;;;2.20;;
14665;SDS011;7420;53.574;10.040;2022-09-12T13:59:53;3.00;;;2.13;;
14665;SDS011;7420;53.574;10.040;2022-09-12T14:02:20;3.25;;;2.13;;
14665;SDS011;7420;53.574;10.040;2022-09-12T14:04:47;4.43;;;2.30;;
14665;SDS011;7420;53.574;10.040;2022-09-12T14:07:32;2.72;;;2.08;;
14665;SDS011;7420;53.574;10.040;2022-09-12T14:10:04;4.20;;;2.40;;
14665;SDS011;7420;53.574;10.040;2022-09-12T14:12:31;2.55;;;2.17;;
14665;SDS011;7420;53.574;10.040;2022-09-12T14:15:00;2.70;;;2.38;;
14665;SDS011;7420;53.574;10.040;2022-09-12T14:19:55;2.55;;;2.10;;
14665;SDS011;7420;53.574;10.040;2022-09-12T14:22:23;3.28;;;2.30;;
14665;SDS011;7420;53.574;10.040;2022-09-12T14:24:50;3.00;;;2.45;;
14665;SDS011;7420;53.574;10.040;2022-09-12T14:27:17;2.95;;;2.15;;
14665;SDS011;7420;53.574;10.040;2022-09-12T14:29:47;3.40;;;2.65;;
14665;SDS011;7420;53.574;10.040;2022-09-12T14:32:17;7.35;;;2.45;;
14665;SDS011;7420;53.574;10.040;2022-09-12T14:35:02;5.25;;;2.95;;
14665;SDS011;7420;53.574;10.040;2022-09-12T14:37:28;2.95;;;2.30;;
14665;SDS011;7420;53.574;10.040;2022-09-12T14:39:54;2.95;;;2.63;;
14665;SDS011;7420;53.574;10.040;2022-09-12T14:42:21;3.72;;;2.20;;
14665;SDS011;7420;53.574;10.040;2022-09-12T14:45:02;3.03;;;2.45;;
14665;SDS011;7420;53.574;10.040;2022-09-12T14:47:37;2.58;;;2.30;;
14665;SDS011;7420;53.574;10.040;2022-09-12T14:50:22;2.70;;;2.45;;
14665;SDS011;7420;53.574;10.040;2022-09-12T14:56:07;3.30;;;2.53;;
14665;SDS011;7420;53.574;10.040;2022-09-12T14:58:37;3.17;;;2.70;;
14665;SDS011;7420;53.574;10.040;2022-09-12T15:03:36;3.23;;;2.50;;
14665;SDS011;7420;53.574;10.040;2022-09-12T15:06:28;2.60;;;2.33;;
14665;SDS011;7420;53.574;10.040;2022-09-12T15:08:56;3.55;;;2.88;;
14665;SDS011;7420;53.574;10.040;2022-09-12T15:11:24;3.20;;;2.42;;
14665;SDS011;7420;53.574;10.040;2022-09-12T15:13:49;2.53;;;2.33;;
14665;SDS011;7420;53.574;10.040;2022-09-12T15:16:15;3.30;;;2.55;;
14665;SDS011;7420;53.574;10.040;2022-09-12T15:18:41;4.05;;;2.75;;
14665;SDS011;7420;53.574;10.040;2022-09-12T15:21:06;3.65;;;2.60;;
14665;SDS011;7420;53.574;10.040;2022-09-12T15:23:39;3.97;;;2.58;;
14665;SDS011;7420;53.574;10.040;2022-09-12T15:26:09;2.53;;;2.33;;
14665;SDS011;7420;53.574;10.040;2022-09-12T15:28:37;4.20;;;2.22;;
14665;SDS011;7420;53.574;10.040;2022-09-12T15:31:04;2.42;;;2.20;;
14665;SDS011;7420;53.574;10.040;2022-09-12T15:33:31;2.38;;;2.17;;
14665;SDS011;7420;53.574;10.040;2022-09-12T15:35:56;3.45;;;2.60;;
14665;SDS011;7420;53.574;10.040;2022-09-12T15:38:22;3.42;;;2.40;;
14665;SDS011;7420;53.574;10.040;2022-09-12T15:40:50;2.25;;;2.05;;
14665;SDS011;7420;53.574;10.040;2022-09-12T15:43:20;4.77;;;2.63;;
14665;SDS011;7420;53.574;10.040;2022-09-12T15:45:47;2.97;;;2.53;;
14665;SDS011;7420;53.574;10.040;2022-09-12T15:48:14;3.15;;;2.60;;
14665;SDS011;7420;53.574;10.040;2022-09-12T15:50:40;2.47;;;2.28;;
14665;SDS011;7420;53.574;10.040;2022-09-12T15:53:08;4.53;;;2.63;;
14665;SDS011;7420;53.574;10.040;2022-09-12T15:55:37;3.78;;;2.80;;
14665;SDS011;7420;53.574;10.040;2022-09-12T15:58:02;4.57;;;2.67;;
14665;SDS011;7420;53.574;10.040;2022-09-12T16:00:27;3.50;;;3.08;;
14665;SDS011;7420;53.574;10.040;2022-09-12T16:02:53;4.60;;;2.60;;
14665;SDS011;7420;53.574;10.040;2022-09-12T16:05:19;4.07;;;2.97;;
14665;SDS011;7420;53.574;10.040;2022-09-12T16:07:46;8.25;;;2.97;;
14665;SDS011;7420;53.574;10.040;2022-09-12T16:10:16;4.18;;;3.40;;
14665;SDS011;7420;53.574;10.040;2022-09-12T16:12:44;3.60;;;3.08;;
14665;SDS011;7420;53.574;10.040;2022-09-12T16:15:14;5.88;;;4.00;;
14665;SDS011;7420;53.574;10.040;2022-09-12T16:17:43;4.05;;;3.28;;
14665;SDS011;7420;53.574;10.040;2022-09-12T16:20:09;3.60;;;3.20;;
14665;SDS011;7420;53.574;10.040;2022-09-12T16:22:35;3.45;;;3.08;;
14665;SDS011;7420;53.574;10.040;2022-09-12T16:25:02;4.15;;;2.83;;
14665;SDS011;7420;53.574;10.040;2022-09-12T16:27:29;3.75;;;2.97;;
14665;SDS011;7420;53.574;10.040;2022-09-12T16:29:54;5.57;;;3.45;;
14665;SDS011;7420;53.574;10.040;2022-09-12T16:32:19;3.88;;;3.58;;
14665;SDS011;7420;53.574;10.040;2022-09-12T16:34:45;4.13;;;3.35;;
14665;SDS011;7420;53.574;10.040;2022-09-12T16:37:10;3.80;;;3.20;;
14665;SDS011;7420;53.574;10.040;2022-09-12T16:39:35;5.25;;;3.50;;
14665;SDS011;7420;53.574;10.040;2022-09-12T16:42:01;6.43;;;3.78;;
14665;SDS011;7420;53.574;10.040;2022-09-12T16:44:27;3.63;;;3.28;;
14665;SDS011;7420;53.574;10.040;2022-09-12T16:46:52;5.15;;;3.55;;
14665;SDS011;7420;53.574;10.040;2022-09-12T16:49:17;4.68;;;3.70;;
14665;SDS011;7420;53.574;10.040;2022-09-12T16:51:43;5.68;;;3.75;;
14665;SDS011;7420;53.574;10.040;2022-09-12T16:54:11;5.43;;;3.70;;
14665;SDS011;7420;53.574;10.040;2022-09-12T16:56:38;5.63;;;4.60;;
14665;SDS011;7420;53.574;10.040;2022-09-12T16:59:03;8.93;;;5.88;;
14665;SDS011;7420;53.574;10.040;2022-09-12T17:01:30;4.40;;;3.75;;
14665;SDS011;7420;53.574;10.040;2022-09-12T17:03:56;7.00;;;4.40;;
14665;SDS011;7420;53.574;10.040;2022-09-12T17:06:22;6.10;;;4.57;;
14665;SDS011;7420;53.574;10.040;2022-09-12T17:08:50;4.32;;;3.92;;
14665;SDS011;7420;53.574;10.040;2022-09-12T17:11:17;5.90;;;4.28;;
14665;SDS011;7420;53.574;10.040;2022-09-12T17:13:48;5.80;;;4.28;;
14665;SDS011;7420;53.574;10.040;2022-09-12T17:16:14;7.57;;;6.10;;
14665;SDS011;7420;53.574;10.040;2022-09-12T17:18:40;8.57;;;4.40;;
14665;SDS011;7420;53.574;10.040;2022-09-12T17:21:06;5.88;;;4.78;;
14665;SDS011;7420;53.574;10.040;2022-09-12T17:23:33;5.25;;;3.78;;
14665;SDS011;7420;53.574;10.040;2022-09-12T17:25:59;5.30;;;4.72;;
14665;SDS011;7420;53.574;10.040;2022-09-12T17:28:24;7.28;;;4.70;;
14665;SDS011;7420;53.574;10.040;2022-09-12T17:30:54;6.85;;;4.63;;
14665;SDS011;7420;53.574;10.040;2022-09-12T17:33:21;5.90;;;5.32;;